sensor_id;sensor_type;location;lat;lon;timestamp;temperature;humidity
74822;DHT22;63353;48.702;8.884;2023-03-11T00:00:46;0.60;99.90
74822;DHT22;63353;48.702;8.884;2023-03-11T00:03:17;0.60;99.90
74822;DHT22;63353;48.702;8.884;2023-03-11T00:05:46;0.60;99.90
74822;DHT22;63353;48.702;8.884;2023-03-11T00:08:20;0.60;99.90
74822;DHT22;63353;48.702;8.884;2023-03-11T00:10:57;0.60;99.90
74822;DHT22;63353;48.702;8.884;2023-03-11T00:13:34;0.50;99.90
74822;DHT22;63353;48.702;8.884;2023-03-11T00:16:04;0.50;99.90
74822;DHT22;63353;48.702;8.884;2023-03-11T00:18:33;0.60;99.90
74822;DHT22;63353;48.702;8.884;2023-03-11T00:20:59;0.60;99.90
74822;DHT22;63353;48.702;8.884;2023-03-11T00:23:31;0.60;99.90
74822;DHT22;63353;48.702;8.884;2023-03-11T00:25:58;0.60;99.90
74822;DHT22;63353;48.702;8.884;2023-03-11T00:28:36;0.70;99.90
74822;DHT22;63353;48.702;8.884;2023-03-11T00:31:02;0.70;99.90
74822;DHT22;63353;48.702;8.884;2023-03-11T00:33:31;0.70;99.90
74822;DHT22;63353;48.702;8.884;2023-03-11T00:36:00;0.70;99.90
74822;DHT22;63353;48.702;8.884;2023-03-11T00:38:34;0.70;99.90
74822;DHT22;63353;48.702;8.884;2023-03-11T00:40:59;0.70;99.90
74822;DHT22;63353;48.702;8.884;2023-03-11T00:43:26;0.70;99.90
74822;DHT22;63353;48.702;8.884;2023-03-11T00:45:57;0.70;99.90
74822;DHT22;63353;48.702;8.884;2023-03-11T00:48:35;0.70;99.90
74822;DHT22;63353;48.702;8.884;2023-03-11T00:51:19;0.70;99.90
74822;DHT22;63353;48.702;8.884;2023-03-11T00:53:50;0.70;99.90
74822;DHT22;63353;48.702;8.884;2023-03-11T00:56:38;0.70;99.90
74822;DHT22;63353;48.702;8.884;2023-03-11T00:59:12;0.70;99.90
74822;DHT22;63353;48.702;8.884;2023-03-11T01:01:40;0.70;99.90
74822;DHT22;63353;48.702;8.884;2023-03-11T01:04:15;0.70;99.90
74822;DHT22;63353;48.702;8.884;2023-03-11T01:06:41;0.70;99.90
74822;DHT22;63353;48.702;8.884;2023-03-11T01:09:06;0.70;99.90
74822;DHT22;63353;48.702;8.884;2023-03-11T01:11:32;0.70;99.90
74822;DHT22;63353;48.702;8.884;2023-03-11T01:13:58;0.60;99.90
74822;DHT22;63353;48.702;8.884;2023-03-11T01:16:32;0.70;99.90
74822;DHT22;63353;48.702;8.884;2023-03-11T01:19:01;0.60;99.90
74822;DHT22;63353;48.702;8.884;2023-03-11T01:21:30;0.60;99.90
74822;DHT22;63353;48.702;8.884;2023-03-11T01:23:58;0.50;99.90
74822;DHT22;63353;48.702;8.884;2023-03-11T01:26:27;0.60;99.90
74822;DHT22;63353;48.702;8.884;2023-03-11T01:28:58;0.50;99.90
74822;DHT22;63353;48.702;8.884;2023-03-11T01:31:30;0.40;99.90
74822;DHT22;63353;48.702;8.884;2023-03-11T01:33:55;0.40;99.90
74822;DHT22;63353;48.702;8.884;2023-03-11T01:36:21;0.40;99.90
74822;DHT22;63353;48.702;8.884;2023-03-11T01:38:49;0.30;99.90
74822;DHT22;63353;48.702;8.884;2023-03-11T01:41:18;0.30;99.90
74822;DHT22;63353;48.702;8.884;2023-03-11T01:43:53;0.30;99.90
74822;DHT22;63353;48.702;8.884;2023-03-11T01:49:21;0.30;99.90
74822;DHT22;63353;48.702;8.884;2023-03-11T01:51:48;0.30;99.90
74822;DHT22;63353;48.702;8.884;2023-03-11T01:54:37;0.30;99.90
74822;DHT22;63353;48.702;8.884;2023-03-11T01:57:13;0.20;99.90
74822;DHT22;63353;48.702;8.884;2023-03-11T01:59:47;0.20;99.90
74822;DHT22;63353;48.702;8.884;2023-03-11T02:02:17;0.10;99.90
74822;DHT22;63353;48.702;8.884;2023-03-11T02:04:50;0.10;99.90
74822;DHT22;63353;48.702;8.884;2023-03-11T02:07:19;0.10;99.90
74822;DHT22;63353;48.702;8.884;2023-03-11T02:09:57;0.10;99.90
74822;DHT22;63353;48.702;8.884;2023-03-11T02:12:23;0.10;99.90
74822;DHT22;63353;48.702;8.884;2023-03-11T02:14:50;0.10;99.90
74822;DHT22;63353;48.702;8.884;2023-03-11T02:17:19;0.10;99.90
74822;DHT22;63353;48.702;8.884;2023-03-11T02:22:42;0.00;99.90
74822;DHT22;63353;48.702;8.884;2023-03-11T02:28:07;-0.10;99.90
74822;DHT22;63353;48.702;8.884;2023-03-11T02:30:35;-0.20;99.90
74822;DHT22;63353;48.702;8.884;2023-03-11T02:33:03;-0.30;99.90
74822;DHT22;63353;48.702;8.884;2023-03-11T02:35:32;-0.30;99.90
74822;DHT22;63353;48.702;8.884;2023-03-11T02:38:00;-0.40;99.90
74822;DHT22;63353;48.702;8.884;2023-03-11T02:40:37;-0.40;99.90
74822;DHT22;63353;48.702;8.884;2023-03-11T02:43:09;-0.50;99.90
74822;DHT22;63353;48.702;8.884;2023-03-11T02:45:36;-0.60;99.90
74822;DHT22;63353;48.702;8.884;2023-03-11T02:48:10;-0.60;99.90
74822;DHT22;63353;48.702;8.884;2023-03-11T02:50:39;-0.60;99.90
74822;DHT22;63353;48.702;8.884;2023-03-11T02:53:08;-0.70;99.90
74822;DHT22;63353;48.702;8.884;2023-03-11T02:55:37;-0.70;99.90
74822;DHT22;63353;48.702;8.884;2023-03-11T02:58:06;-0.80;99.90
74822;DHT22;63353;48.702;8.884;2023-03-11T03:00:49;-0.80;99.90
74822;DHT22;63353;48.702;8.884;2023-03-11T03:03:21;-0.90;99.90
74822;DHT22;63353;48.702;8.884;2023-03-11T03:05:52;-0.90;99.90
74822;DHT22;63353;48.702;8.884;2023-03-11T03:08:24;-0.90;99.90
74822;DHT22;63353;48.702;8.884;2023-03-11T03:10:53;-1.00;99.90
74822;DHT22;63353;48.702;8.884;2023-03-11T03:13:25;-1.00;99.90
74822;DHT22;63353;48.702;8.884;2023-03-11T03:15:51;-1.10;99.90
74822;DHT22;63353;48.702;8.884;2023-03-11T03:18:20;-1.10;99.90
74822;DHT22;63353;48.702;8.884;2023-03-11T03:20:49;-1.20;99.90
74822;DHT22;63353;48.702;8.884;2023-03-11T03:23:15;-1.30;99.90
74822;DHT22;63353;48.702;8.884;2023-03-11T03:25:44;-1.20;99.90
74822;DHT22;63353;48.702;8.884;2023-03-11T03:28:25;-1.30;99.90
74822;DHT22;63353;48.702;8.884;2023-03-11T03:30:54;-1.30;99.90
74822;DHT22;63353;48.702;8.884;2023-03-11T03:33:20;-1.40;99.90
74822;DHT22;63353;48.702;8.884;2023-03-11T03:35:48;-1.40;99.90
74822;DHT22;63353;48.702;8.884;2023-03-11T03:38:20;-1.50;99.90
74822;DHT22;63353;48.702;8.884;2023-03-11T03:40:48;-1.50;99.90
74822;DHT22;63353;48.702;8.884;2023-03-11T03:43:17;-1.50;99.90
74822;DHT22;63353;48.702;8.884;2023-03-11T03:45:54;-1.50;99.90
74822;DHT22;63353;48.702;8.884;2023-03-11T03:48:26;-1.50;99.90
74822;DHT22;63353;48.702;8.884;2023-03-11T03:50:55;-1.50;99.90
74822;DHT22;63353;48.702;8.884;2023-03-11T03:53:24;-1.70;99.90
74822;DHT22;63353;48.702;8.884;2023-03-11T03:55:53;-1.80;99.90
74822;DHT22;63353;48.702;8.884;2023-03-11T03:58:24;-1.90;99.90
74822;DHT22;63353;48.702;8.884;2023-03-11T04:00:59;-1.90;99.90
74822;DHT22;63353;48.702;8.884;2023-03-11T04:03:26;-1.90;99.90
74822;DHT22;63353;48.702;8.884;2023-03-11T04:06:23;-2.00;99.90
74822;DHT22;63353;48.702;8.884;2023-03-11T04:08:50;-1.90;99.90
74822;DHT22;63353;48.702;8.884;2023-03-11T04:11:16;-1.90;99.90
74822;DHT22;63353;48.702;8.884;2023-03-11T04:13:42;-1.80;99.90
74822;DHT22;63353;48.702;8.884;2023-03-11T04:16:15;-1.90;99.90
74822;DHT22;63353;48.702;8.884;2023-03-11T04:18:41;-1.80;99.90
74822;DHT22;63353;48.702;8.884;2023-03-11T04:21:06;-1.90;99.90
74822;DHT22;63353;48.702;8.884;2023-03-11T04:23:35;-1.90;99.90
74822;DHT22;63353;48.702;8.884;2023-03-11T04:26:01;-1.90;99.90
74822;DHT22;63353;48.702;8.884;2023-03-11T04:28:26;-2.00;99.90
74822;DHT22;63353;48.702;8.884;2023-03-11T04:30:52;-2.00;99.90
74822;DHT22;63353;48.702;8.884;2023-03-11T04:33:19;-2.10;99.90
74822;DHT22;63353;48.702;8.884;2023-03-11T04:35:45;-2.20;99.90
74822;DHT22;63353;48.702;8.884;2023-03-11T04:38:17;-2.10;99.90
74822;DHT22;63353;48.702;8.884;2023-03-11T04:40:42;-2.10;99.90
74822;DHT22;63353;48.702;8.884;2023-03-11T04:43:11;-2.10;99.90
74822;DHT22;63353;48.702;8.884;2023-03-11T04:45:38;-2.20;99.90
74822;DHT22;63353;48.702;8.884;2023-03-11T04:48:03;-2.20;99.90
74822;DHT22;63353;48.702;8.884;2023-03-11T04:50:29;-2.30;99.90
74822;DHT22;63353;48.702;8.884;2023-03-11T04:52:58;-2.20;99.90
74822;DHT22;63353;48.702;8.884;2023-03-11T04:55:23;-2.40;99.90
74822;DHT22;63353;48.702;8.884;2023-03-11T04:57:49;-2.40;99.90
74822;DHT22;63353;48.702;8.884;2023-03-11T05:00:15;-2.40;99.90
74822;DHT22;63353;48.702;8.884;2023-03-11T05:02:41;-2.50;99.90
74822;DHT22;63353;48.702;8.884;2023-03-11T05:05:08;-2.50;99.90
74822;DHT22;63353;48.702;8.884;2023-03-11T05:07:37;-2.40;99.90
74822;DHT22;63353;48.702;8.884;2023-03-11T05:10:03;-2.50;99.90
74822;DHT22;63353;48.702;8.884;2023-03-11T05:12:30;-2.50;99.90
74822;DHT22;63353;48.702;8.884;2023-03-11T05:14:55;-2.50;99.90
74822;DHT22;63353;48.702;8.884;2023-03-11T05:17:21;-2.40;99.90
74822;DHT22;63353;48.702;8.884;2023-03-11T05:19:51;-2.40;99.90
74822;DHT22;63353;48.702;8.884;2023-03-11T05:22:21;-2.40;99.90
74822;DHT22;63353;48.702;8.884;2023-03-11T05:24:46;-2.40;99.90
74822;DHT22;63353;48.702;8.884;2023-03-11T05:27:13;-2.50;99.90
74822;DHT22;63353;48.702;8.884;2023-03-11T05:29:42;-2.50;99.90
74822;DHT22;63353;48.702;8.884;2023-03-11T05:32:08;-2.60;99.90
74822;DHT22;63353;48.702;8.884;2023-03-11T05:34:34;-2.60;99.90
74822;DHT22;63353;48.702;8.884;2023-03-11T05:36:59;-2.60;99.90
74822;DHT22;63353;48.702;8.884;2023-03-11T05:39:26;-2.70;99.90
74822;DHT22;63353;48.702;8.884;2023-03-11T05:41:51;-2.70;99.90
74822;DHT22;63353;48.702;8.884;2023-03-11T05:44:17;-2.70;99.90
74822;DHT22;63353;48.702;8.884;2023-03-11T05:46:43;-2.70;99.90
74822;DHT22;63353;48.702;8.884;2023-03-11T05:49:08;-2.70;99.90
74822;DHT22;63353;48.702;8.884;2023-03-11T05:51:34;-2.80;99.90
74822;DHT22;63353;48.702;8.884;2023-03-11T05:54:00;-2.80;99.90
74822;DHT22;63353;48.702;8.884;2023-03-11T05:56:26;-2.80;99.90
74822;DHT22;63353;48.702;8.884;2023-03-11T05:58:52;-2.90;99.90
74822;DHT22;63353;48.702;8.884;2023-03-11T06:01:18;-2.90;99.90
74822;DHT22;63353;48.702;8.884;2023-03-11T06:03:45;-2.90;99.90
74822;DHT22;63353;48.702;8.884;2023-03-11T06:06:11;-3.00;99.90
74822;DHT22;63353;48.702;8.884;2023-03-11T06:08:37;-2.90;99.90
74822;DHT22;63353;48.702;8.884;2023-03-11T06:11:06;-3.00;99.90
74822;DHT22;63353;48.702;8.884;2023-03-11T06:13:32;-2.90;99.90
74822;DHT22;63353;48.702;8.884;2023-03-11T06:15:57;-2.90;99.90
74822;DHT22;63353;48.702;8.884;2023-03-11T06:18:23;-2.70;99.90
74822;DHT22;63353;48.702;8.884;2023-03-11T06:20:52;-2.60;99.90
74822;DHT22;63353;48.702;8.884;2023-03-11T06:23:18;-2.50;99.90
74822;DHT22;63353;48.702;8.884;2023-03-11T06:25:43;-2.50;99.90
74822;DHT22;63353;48.702;8.884;2023-03-11T06:28:09;-2.40;99.90
74822;DHT22;63353;48.702;8.884;2023-03-11T06:30:35;-2.40;99.90
74822;DHT22;63353;48.702;8.884;2023-03-11T06:33:00;-2.40;99.90
74822;DHT22;63353;48.702;8.884;2023-03-11T06:35:26;-2.30;99.90
74822;DHT22;63353;48.702;8.884;2023-03-11T06:37:52;-2.10;99.90
74822;DHT22;63353;48.702;8.884;2023-03-11T06:40:17;-1.90;99.90
74822;DHT22;63353;48.702;8.884;2023-03-11T06:42:45;-1.80;99.90
74822;DHT22;63353;48.702;8.884;2023-03-11T06:45:12;-1.60;99.90
74822;DHT22;63353;48.702;8.884;2023-03-11T06:47:38;-1.50;99.90
74822;DHT22;63353;48.702;8.884;2023-03-11T06:50:04;-1.40;99.90
74822;DHT22;63353;48.702;8.884;2023-03-11T06:52:32;-1.30;99.90
74822;DHT22;63353;48.702;8.884;2023-03-11T06:54:57;-1.20;99.90
74822;DHT22;63353;48.702;8.884;2023-03-11T06:57:23;-1.20;99.90
74822;DHT22;63353;48.702;8.884;2023-03-11T06:59:49;-1.10;99.90
74822;DHT22;63353;48.702;8.884;2023-03-11T07:02:15;-1.10;99.90
74822;DHT22;63353;48.702;8.884;2023-03-11T07:04:40;-1.00;99.90
74822;DHT22;63353;48.702;8.884;2023-03-11T07:07:06;-0.90;99.90
74822;DHT22;63353;48.702;8.884;2023-03-11T07:09:32;-0.90;99.90
74822;DHT22;63353;48.702;8.884;2023-03-11T07:11:58;-0.80;99.90
74822;DHT22;63353;48.702;8.884;2023-03-11T07:14:23;-0.80;99.90
74822;DHT22;63353;48.702;8.884;2023-03-11T07:16:51;-0.80;99.90
74822;DHT22;63353;48.702;8.884;2023-03-11T07:19:17;-0.80;99.90
74822;DHT22;63353;48.702;8.884;2023-03-11T07:21:43;-0.80;99.90
74822;DHT22;63353;48.702;8.884;2023-03-11T07:24:11;-0.80;99.90
74822;DHT22;63353;48.702;8.884;2023-03-11T07:26:37;-0.80;99.90
74822;DHT22;63353;48.702;8.884;2023-03-11T07:29:03;-0.80;99.90
74822;DHT22;63353;48.702;8.884;2023-03-11T07:31:31;-0.70;99.90
74822;DHT22;63353;48.702;8.884;2023-03-11T07:33:59;-0.50;99.90
74822;DHT22;63353;48.702;8.884;2023-03-11T07:36:26;-0.40;99.90
74822;DHT22;63353;48.702;8.884;2023-03-11T07:39:01;-0.30;99.90
74822;DHT22;63353;48.702;8.884;2023-03-11T07:41:33;-0.20;99.90
74822;DHT22;63353;48.702;8.884;2023-03-11T07:44:00;-0.10;99.90
74822;DHT22;63353;48.702;8.884;2023-03-11T07:46:27;-0.10;99.90
74822;DHT22;63353;48.702;8.884;2023-03-11T07:49:02;-0.10;99.90
74822;DHT22;63353;48.702;8.884;2023-03-11T07:51:30;0.00;99.90
74822;DHT22;63353;48.702;8.884;2023-03-11T07:53:58;0.10;99.90
74822;DHT22;63353;48.702;8.884;2023-03-11T07:56:26;0.10;99.90
74822;DHT22;63353;48.702;8.884;2023-03-11T07:58:52;0.20;99.90
74822;DHT22;63353;48.702;8.884;2023-03-11T08:01:21;0.30;99.90
74822;DHT22;63353;48.702;8.884;2023-03-11T08:03:50;0.30;99.90
74822;DHT22;63353;48.702;8.884;2023-03-11T08:06:21;0.40;99.90
74822;DHT22;63353;48.702;8.884;2023-03-11T08:08:48;0.50;99.90
74822;DHT22;63353;48.702;8.884;2023-03-11T08:11:18;0.60;99.90
74822;DHT22;63353;48.702;8.884;2023-03-11T08:13:46;0.50;99.90
74822;DHT22;63353;48.702;8.884;2023-03-11T08:16:20;0.70;99.90
74822;DHT22;63353;48.702;8.884;2023-03-11T08:18:47;1.00;99.90
74822;DHT22;63353;48.702;8.884;2023-03-11T08:21:16;1.20;99.90
74822;DHT22;63353;48.702;8.884;2023-03-11T08:23:51;1.30;99.90
74822;DHT22;63353;48.702;8.884;2023-03-11T08:26:20;1.50;99.90
74822;DHT22;63353;48.702;8.884;2023-03-11T08:28:47;1.90;99.90
74822;DHT22;63353;48.702;8.884;2023-03-11T08:31:22;2.10;99.90
74822;DHT22;63353;48.702;8.884;2023-03-11T08:33:53;1.90;99.90
74822;DHT22;63353;48.702;8.884;2023-03-11T08:36:22;1.80;99.90
74822;DHT22;63353;48.702;8.884;2023-03-11T08:38:49;2.10;99.90
74822;DHT22;63353;48.702;8.884;2023-03-11T08:41:26;2.40;99.90
74822;DHT22;63353;48.702;8.884;2023-03-11T08:43:52;2.80;99.90
74822;DHT22;63353;48.702;8.884;2023-03-11T08:46:38;2.90;99.90
74822;DHT22;63353;48.702;8.884;2023-03-11T08:49:04;2.80;99.90
74822;DHT22;63353;48.702;8.884;2023-03-11T08:51:34;2.80;99.90
74822;DHT22;63353;48.702;8.884;2023-03-11T08:54:09;2.50;99.90
74822;DHT22;63353;48.702;8.884;2023-03-11T08:56:35;3.10;99.90
74822;DHT22;63353;48.702;8.884;2023-03-11T08:59:16;2.90;99.90
74822;DHT22;63353;48.702;8.884;2023-03-11T09:01:47;2.40;99.90
74822;DHT22;63353;48.702;8.884;2023-03-11T09:04:13;2.50;99.90
74822;DHT22;63353;48.702;8.884;2023-03-11T09:06:43;2.80;99.90
74822;DHT22;63353;48.702;8.884;2023-03-11T09:09:12;2.80;99.90
74822;DHT22;63353;48.702;8.884;2023-03-11T09:11:37;2.40;99.90
74822;DHT22;63353;48.702;8.884;2023-03-11T09:14:04;2.30;99.90
74822;DHT22;63353;48.702;8.884;2023-03-11T09:16:37;2.60;99.90
74822;DHT22;63353;48.702;8.884;2023-03-11T09:19:02;3.00;99.90
74822;DHT22;63353;48.702;8.884;2023-03-11T09:21:35;3.30;99.90
74822;DHT22;63353;48.702;8.884;2023-03-11T09:24:13;3.80;99.90
74822;DHT22;63353;48.702;8.884;2023-03-11T09:26:44;4.30;99.90
74822;DHT22;63353;48.702;8.884;2023-03-11T09:29:10;4.60;99.90
74822;DHT22;63353;48.702;8.884;2023-03-11T09:31:35;5.10;99.90
74822;DHT22;63353;48.702;8.884;2023-03-11T09:34:03;5.50;99.90
74822;DHT22;63353;48.702;8.884;2023-03-11T09:36:31;4.50;99.90
74822;DHT22;63353;48.702;8.884;2023-03-11T09:39:00;4.50;99.90
74822;DHT22;63353;48.702;8.884;2023-03-11T09:41:53;4.50;99.90
74822;DHT22;63353;48.702;8.884;2023-03-11T09:50:14;3.60;99.90
74822;DHT22;63353;48.702;8.884;2023-03-11T09:58:01;3.90;99.90
74822;DHT22;63353;48.702;8.884;2023-03-11T10:00:31;4.30;99.90
74822;DHT22;63353;48.702;8.884;2023-03-11T10:02:59;5.00;99.90
74822;DHT22;63353;48.702;8.884;2023-03-11T10:05:28;5.70;99.90
74822;DHT22;63353;48.702;8.884;2023-03-11T10:11:09;5.90;99.90
74822;DHT22;63353;48.702;8.884;2023-03-11T10:19:53;5.80;99.90
74822;DHT22;63353;48.702;8.884;2023-03-11T10:25:08;5.90;99.90
74822;DHT22;63353;48.702;8.884;2023-03-11T10:27:48;5.80;99.90
74822;DHT22;63353;48.702;8.884;2023-03-11T10:30:22;5.90;99.90
74822;DHT22;63353;48.702;8.884;2023-03-11T10:33:31;6.20;99.90
74822;DHT22;63353;48.702;8.884;2023-03-11T10:35:57;7.00;99.90
74822;DHT22;63353;48.702;8.884;2023-03-11T10:38:29;7.60;99.90
74822;DHT22;63353;48.702;8.884;2023-03-11T10:41:00;8.10;99.90
74822;DHT22;63353;48.702;8.884;2023-03-11T10:43:32;8.40;99.90
74822;DHT22;63353;48.702;8.884;2023-03-11T10:46:06;7.60;99.90
74822;DHT22;63353;48.702;8.884;2023-03-11T10:48:40;6.40;99.90
74822;DHT22;63353;48.702;8.884;2023-03-11T10:51:16;5.90;99.90
74822;DHT22;63353;48.702;8.884;2023-03-11T10:56:35;4.80;99.90
74822;DHT22;63353;48.702;8.884;2023-03-11T10:59:03;4.50;99.90
74822;DHT22;63353;48.702;8.884;2023-03-11T11:01:33;4.50;99.90
74822;DHT22;63353;48.702;8.884;2023-03-11T11:04:00;4.60;99.90
74822;DHT22;63353;48.702;8.884;2023-03-11T11:06:27;4.50;99.90
74822;DHT22;63353;48.702;8.884;2023-03-11T11:09:19;4.10;99.90
74822;DHT22;63353;48.702;8.884;2023-03-11T11:12:11;4.50;99.90
74822;DHT22;63353;48.702;8.884;2023-03-11T11:14:49;4.80;99.90
74822;DHT22;63353;48.702;8.884;2023-03-11T11:17:35;5.00;99.90
74822;DHT22;63353;48.702;8.884;2023-03-11T11:20:03;5.40;99.90
74822;DHT22;63353;48.702;8.884;2023-03-11T11:22:38;6.10;99.90
74822;DHT22;63353;48.702;8.884;2023-03-11T11:25:42;6.50;99.90
74822;DHT22;63353;48.702;8.884;2023-03-11T11:28:19;6.70;99.90
74822;DHT22;63353;48.702;8.884;2023-03-11T11:33:46;6.40;99.90
74822;DHT22;63353;48.702;8.884;2023-03-11T11:36:27;6.30;99.90
74822;DHT22;63353;48.702;8.884;2023-03-11T11:39:00;6.30;99.90
74822;DHT22;63353;48.702;8.884;2023-03-11T11:41:34;6.40;99.80
74822;DHT22;63353;48.702;8.884;2023-03-11T11:44:05;6.30;99.70
74822;DHT22;63353;48.702;8.884;2023-03-11T11:46:48;6.30;99.90
74822;DHT22;63353;48.702;8.884;2023-03-11T11:49:17;6.60;99.90
74822;DHT22;63353;48.702;8.884;2023-03-11T11:51:51;6.70;99.90
74822;DHT22;63353;48.702;8.884;2023-03-11T11:56:54;7.30;99.30
74822;DHT22;63353;48.702;8.884;2023-03-11T11:59:22;7.60;95.70
74822;DHT22;63353;48.702;8.884;2023-03-11T12:07:46;8.60;98.90
74822;DHT22;63353;48.702;8.884;2023-03-11T12:10:34;7.80;94.30
74822;DHT22;63353;48.702;8.884;2023-03-11T12:24:45;8.00;94.90
74822;DHT22;63353;48.702;8.884;2023-03-11T12:27:22;7.80;87.50
74822;DHT22;63353;48.702;8.884;2023-03-11T12:30:16;7.50;91.60
74822;DHT22;63353;48.702;8.884;2023-03-11T12:33:04;7.60;97.00
74822;DHT22;63353;48.702;8.884;2023-03-11T12:35:32;7.90;99.90
74822;DHT22;63353;48.702;8.884;2023-03-11T12:46:19;9.40;97.00
74822;DHT22;63353;48.702;8.884;2023-03-11T12:49:08;9.10;87.30
74822;DHT22;63353;48.702;8.884;2023-03-11T12:51:38;8.20;83.10
74822;DHT22;63353;48.702;8.884;2023-03-11T13:08:28;7.40;87.10
74822;DHT22;63353;48.702;8.884;2023-03-11T13:11:00;7.00;90.20
74822;DHT22;63353;48.702;8.884;2023-03-11T13:13:43;6.80;88.70
74822;DHT22;63353;48.702;8.884;2023-03-11T13:18:46;8.10;98.90
74822;DHT22;63353;48.702;8.884;2023-03-11T13:27:04;8.30;87.10
74822;DHT22;63353;48.702;8.884;2023-03-11T13:29:58;8.00;85.40
74822;DHT22;63353;48.702;8.884;2023-03-11T13:32:46;8.60;93.10
74822;DHT22;63353;48.702;8.884;2023-03-11T13:35:27;10.40;96.40
74822;DHT22;63353;48.702;8.884;2023-03-11T13:41:16;12.80;93.90
74822;DHT22;63353;48.702;8.884;2023-03-11T13:43:49;13.80;81.10
74822;DHT22;63353;48.702;8.884;2023-03-11T13:46:26;11.50;75.60
74822;DHT22;63353;48.702;8.884;2023-03-11T13:49:34;10.60;72.00
74822;DHT22;63353;48.702;8.884;2023-03-11T13:57:28;12.30;72.20
74822;DHT22;63353;48.702;8.884;2023-03-11T14:00:22;11.30;72.50
74822;DHT22;63353;48.702;8.884;2023-03-11T14:03:03;10.20;82.90
74822;DHT22;63353;48.702;8.884;2023-03-11T14:05:39;9.20;81.70
74822;DHT22;63353;48.702;8.884;2023-03-11T14:08:27;8.60;79.60
74822;DHT22;63353;48.702;8.884;2023-03-11T14:10:58;8.00;84.80
74822;DHT22;63353;48.702;8.884;2023-03-11T14:13:27;7.60;86.60
74822;DHT22;63353;48.702;8.884;2023-03-11T14:16:09;7.90;83.40
74822;DHT22;63353;48.702;8.884;2023-03-11T14:18:45;9.10;91.50
74822;DHT22;63353;48.702;8.884;2023-03-11T14:21:21;10.00;78.90
74822;DHT22;63353;48.702;8.884;2023-03-11T14:23:49;10.60;83.80
74822;DHT22;63353;48.702;8.884;2023-03-11T14:26:34;11.10;82.40
74822;DHT22;63353;48.702;8.884;2023-03-11T14:29:08;11.60;77.60
74822;DHT22;63353;48.702;8.884;2023-03-11T14:31:40;11.30;74.00
74822;DHT22;63353;48.702;8.884;2023-03-11T14:34:20;10.70;77.70
74822;DHT22;63353;48.702;8.884;2023-03-11T14:36:51;12.00;71.10
74822;DHT22;63353;48.702;8.884;2023-03-11T14:42:26;13.20;74.10
74822;DHT22;63353;48.702;8.884;2023-03-11T14:47:50;11.70;72.80
74822;DHT22;63353;48.702;8.884;2023-03-11T14:50:23;11.30;73.00
74822;DHT22;63353;48.702;8.884;2023-03-11T14:53:07;12.40;72.40
74822;DHT22;63353;48.702;8.884;2023-03-11T14:55:38;12.60;75.90
74822;DHT22;63353;48.702;8.884;2023-03-11T14:59:16;12.60;68.80
74822;DHT22;63353;48.702;8.884;2023-03-11T15:01:28;12.30;68.90
74822;DHT22;63353;48.702;8.884;2023-03-11T15:06:28;11.80;69.10
74822;DHT22;63353;48.702;8.884;2023-03-11T15:09:09;11.50;72.90
74822;DHT22;63353;48.702;8.884;2023-03-11T15:11:57;11.90;78.70
74822;DHT22;63353;48.702;8.884;2023-03-11T15:14:35;11.70;72.50
74822;DHT22;63353;48.702;8.884;2023-03-11T15:17:14;11.00;74.20
74822;DHT22;63353;48.702;8.884;2023-03-11T15:19:40;10.80;75.40
74822;DHT22;63353;48.702;8.884;2023-03-11T15:24:52;9.90;76.20
74822;DHT22;63353;48.702;8.884;2023-03-11T15:27:36;9.90;77.40
74822;DHT22;63353;48.702;8.884;2023-03-11T15:30:18;9.50;81.60
74822;DHT22;63353;48.702;8.884;2023-03-11T15:32:45;9.70;78.20
74822;DHT22;63353;48.702;8.884;2023-03-11T15:37:49;9.40;84.80
74822;DHT22;63353;48.702;8.884;2023-03-11T15:40:28;8.50;80.10
74822;DHT22;63353;48.702;8.884;2023-03-11T15:43:26;8.10;81.70
74822;DHT22;63353;48.702;8.884;2023-03-11T15:45:53;7.20;84.60
74822;DHT22;63353;48.702;8.884;2023-03-11T15:48:27;7.20;85.70
74822;DHT22;63353;48.702;8.884;2023-03-11T15:50:58;7.10;91.80
74822;DHT22;63353;48.702;8.884;2023-03-11T15:53:25;7.00;91.40
74822;DHT22;63353;48.702;8.884;2023-03-11T15:55:52;6.70;89.30
74822;DHT22;63353;48.702;8.884;2023-03-11T15:58:20;6.50;90.80
74822;DHT22;63353;48.702;8.884;2023-03-11T16:01:04;6.30;91.30
74822;DHT22;63353;48.702;8.884;2023-03-11T16:03:29;5.90;91.70
74822;DHT22;63353;48.702;8.884;2023-03-11T16:05:55;5.70;91.70
74822;DHT22;63353;48.702;8.884;2023-03-11T16:08:21;5.80;92.30
74822;DHT22;63353;48.702;8.884;2023-03-11T16:10:46;5.70;93.40
74822;DHT22;63353;48.702;8.884;2023-03-11T16:13:18;5.50;93.40
74822;DHT22;63353;48.702;8.884;2023-03-11T16:15:47;5.30;94.20
74822;DHT22;63353;48.702;8.884;2023-03-11T16:18:12;5.00;94.10
74822;DHT22;63353;48.702;8.884;2023-03-11T16:20:47;4.90;95.50
74822;DHT22;63353;48.702;8.884;2023-03-11T16:23:20;4.50;96.70
74822;DHT22;63353;48.702;8.884;2023-03-11T16:25:47;4.40;97.60
74822;DHT22;63353;48.702;8.884;2023-03-11T16:28:14;4.30;97.70
74822;DHT22;63353;48.702;8.884;2023-03-11T16:30:43;4.30;98.10
74822;DHT22;63353;48.702;8.884;2023-03-11T16:33:14;4.30;99.40
74822;DHT22;63353;48.702;8.884;2023-03-11T16:35:50;4.30;99.90
74822;DHT22;63353;48.702;8.884;2023-03-11T16:38:22;4.30;99.90
74822;DHT22;63353;48.702;8.884;2023-03-11T16:40:56;4.30;99.90
74822;DHT22;63353;48.702;8.884;2023-03-11T16:43:28;4.20;99.90
74822;DHT22;63353;48.702;8.884;2023-03-11T16:45:54;4.20;99.90
74822;DHT22;63353;48.702;8.884;2023-03-11T16:48:23;4.10;99.90
74822;DHT22;63353;48.702;8.884;2023-03-11T16:50:49;3.90;99.90
74822;DHT22;63353;48.702;8.884;2023-03-11T16:53:15;3.90;99.90
74822;DHT22;63353;48.702;8.884;2023-03-11T16:55:44;3.80;99.90
74822;DHT22;63353;48.702;8.884;2023-03-11T16:58:13;3.70;99.90
74822;DHT22;63353;48.702;8.884;2023-03-11T17:00:40;3.70;99.90
74822;DHT22;63353;48.702;8.884;2023-03-11T17:03:07;3.70;99.90
74822;DHT22;63353;48.702;8.884;2023-03-11T17:05:35;3.60;99.90
74822;DHT22;63353;48.702;8.884;2023-03-11T17:08:00;3.40;99.90
74822;DHT22;63353;48.702;8.884;2023-03-11T17:10:33;3.40;99.90
74822;DHT22;63353;48.702;8.884;2023-03-11T17:13:04;3.20;99.90
74822;DHT22;63353;48.702;8.884;2023-03-11T17:15:30;3.20;99.90
74822;DHT22;63353;48.702;8.884;2023-03-11T17:17:56;3.10;99.90
74822;DHT22;63353;48.702;8.884;2023-03-11T17:20:22;3.10;99.90
74822;DHT22;63353;48.702;8.884;2023-03-11T17:22:48;3.00;99.90
74822;DHT22;63353;48.702;8.884;2023-03-11T17:25:14;3.00;99.90
74822;DHT22;63353;48.702;8.884;2023-03-11T17:27:39;2.80;99.90
74822;DHT22;63353;48.702;8.884;2023-03-11T17:30:06;2.70;99.90
74822;DHT22;63353;48.702;8.884;2023-03-11T17:32:32;2.60;99.90
74822;DHT22;63353;48.702;8.884;2023-03-11T17:34:58;2.50;99.90
74822;DHT22;63353;48.702;8.884;2023-03-11T17:37:23;2.40;99.90
74822;DHT22;63353;48.702;8.884;2023-03-11T17:39:49;2.30;99.90
74822;DHT22;63353;48.702;8.884;2023-03-11T17:42:15;2.30;99.90
74822;DHT22;63353;48.702;8.884;2023-03-11T17:44:41;2.20;99.90
74822;DHT22;63353;48.702;8.884;2023-03-11T17:47:07;2.10;99.90
74822;DHT22;63353;48.702;8.884;2023-03-11T17:49:35;2.00;99.90
74822;DHT22;63353;48.702;8.884;2023-03-11T17:52:01;1.90;99.90
74822;DHT22;63353;48.702;8.884;2023-03-11T17:54:30;1.90;99.90